Frisco, Colorado
Current Conditions -  °F | °C
As of 7:57 AM on Tuesday 21 Oct 2014 (Local Time) from KCCU Reporting Station
Clear Clear  
Wind Chill: 36°   Ceiling: Unl
Heat Index: 41°   Visibility: 10mi
Dew Point: 28°   Wind: 7mph
Humidity: 61%   Direction: 180°S
Pressure: 30.38"   Gusts: NA
Location:  39.57°N, 106.1°W
Report Text: KCCU 211357Z AUTO 18006KT 10SM CLR 05/M02 A3038 RMK AO2 LTG DSNT W
Loading
Personal Weather Stations






























Interactive Weather Map New forecast layout! Learn more

10-Day Weather Forecast

Advertisements
Track Severe Weather on mobile